createdAt,value
2018-05-23T00:02:14.152Z,100394.86
2018-05-23T00:04:42.469Z,100396.48
2018-05-23T00:07:11.513Z,100387.45
2018-05-23T00:09:39.908Z,100388.58
2018-05-23T00:12:08.231Z,100378.22
2018-05-23T00:14:37.294Z,100380.91
2018-05-23T00:17:05.602Z,100387.23
2018-05-23T00:19:34.838Z,100383.73
2018-05-23T00:22:03.214Z,100384.67
2018-05-23T00:24:32.023Z,100386.06
2018-05-23T00:27:00.331Z,100385.36
2018-05-23T00:29:29.450Z,100385.84
2018-05-23T00:31:58.521Z,100385.04
2018-05-23T00:34:26.807Z,100385.97
2018-05-23T00:36:55.879Z,100386.61
2018-05-23T00:39:24.178Z,100390.59
2018-05-23T00:41:53.264Z,100401.84
2018-05-23T00:44:21.529Z,100397.05
2018-05-23T00:46:49.836Z,100395.30
2018-05-23T00:49:18.965Z,100387.09
2018-05-23T00:51:47.214Z,100387.98
2018-05-23T00:54:16.282Z,100389.81
2018-05-23T00:56:44.580Z,100386.73
2018-05-23T00:59:13.643Z,100387.72
2018-05-23T01:01:41.952Z,100390.77
2018-05-23T01:04:11.019Z,100388.27
2018-05-23T01:06:39.330Z,100388.88
2018-05-23T01:09:08.418Z,100383.80
2018-05-23T01:11:37.957Z,100391.03
2018-05-23T01:14:06.277Z,100392.85
2018-05-23T01:16:34.588Z,100384.12
2018-05-23T01:19:02.872Z,100389.18
2018-05-23T01:21:31.233Z,100392.91
2018-05-23T01:24:00.323Z,100394.46
2018-05-23T01:26:29.393Z,100392.67
2018-05-23T01:28:57.708Z,100389.99
2018-05-23T01:31:26.789Z,100396.98
2018-05-23T01:33:55.084Z,100399.59
2018-05-23T01:36:24.207Z,100405.32
2018-05-23T01:38:52.659Z,100409.08
2018-05-23T01:41:21.721Z,100406.81
2018-05-23T01:43:50.036Z,100407.20
2018-05-23T01:46:18.333Z,100410.84
2018-05-23T01:49:04.409Z,100413.45
2018-05-23T01:51:33.474Z,100417.56
2018-05-23T01:54:01.871Z,100425.61
2018-05-23T01:56:30.128Z,100418.77
2018-05-23T01:58:58.406Z,100416.70
2018-05-23T02:01:26.721Z,100417.38
2018-05-23T02:03:55.099Z,100419.92
2018-05-23T02:06:23.426Z,100431.84
2018-05-23T02:08:51.758Z,100428.20
2018-05-23T02:11:20.900Z,100428.52
2018-05-23T02:13:50.049Z,100424.61
2018-05-23T02:16:19.164Z,100418.84
2018-05-23T02:18:47.479Z,100430.88
2018-05-23T02:21:15.806Z,100427.64
2018-05-23T02:23:44.119Z,100432.42
2018-05-23T02:26:13.189Z,100440.25
2018-05-23T02:28:41.825Z,100442.53
2018-05-23T02:31:10.140Z,100441.25
2018-05-23T02:33:38.428Z,100443.25
2018-05-23T02:36:06.744Z,100446.35
2018-05-23T02:38:35.061Z,100441.99
2018-05-23T02:41:04.123Z,100444.89
2018-05-23T02:43:32.429Z,100448.85
2018-05-23T02:46:01.481Z,100446.09
2018-05-23T02:48:29.790Z,100452.25
2018-05-23T02:50:58.097Z,100447.89
2018-05-23T02:53:26.416Z,100451.03
2018-05-23T02:55:54.685Z,100454.61
2018-05-23T02:58:22.975Z,100457.91
2018-05-23T03:00:51.274Z,100454.41
2018-05-23T03:03:19.571Z,100461.33
2018-05-23T03:05:48.592Z,100462.22
2018-05-23T03:08:16.969Z,100461.73
2018-05-23T03:10:45.415Z,100461.28
2018-05-23T03:13:14.502Z,100460.78
2018-05-23T03:15:42.742Z,100458.59
2018-05-23T03:18:11.276Z,100462.67
2018-05-23T03:20:40.311Z,100464.28
2018-05-23T03:23:08.644Z,100467.92
2018-05-23T03:25:37.684Z,100470.66
2018-05-23T03:28:05.981Z,100474.84
2018-05-23T03:30:34.349Z,100470.19
2018-05-23T03:33:02.724Z,100468.13
2018-05-23T03:35:30.968Z,100475.10
2018-05-23T03:37:59.385Z,100475.78
2018-05-23T03:40:27.688Z,100471.41
2018-05-23T03:42:56.009Z,100478.91
2018-05-23T03:45:24.318Z,100473.41
2018-05-23T03:47:53.381Z,100483.22
2018-05-23T03:50:21.705Z,100483.14
2018-05-23T03:52:50.347Z,100482.83
2018-05-23T03:55:18.725Z,100483.95
2018-05-23T03:57:46.954Z,100489.53
2018-05-23T04:00:33.025Z,100490.74
2018-05-23T04:03:19.104Z,100498.20
2018-05-23T04:08:58.795Z,100503.28
2018-05-23T04:11:27.108Z,100502.22
2018-05-23T04:13:56.193Z,100509.09
2018-05-23T04:16:24.496Z,100511.25
2018-05-23T04:18:53.110Z,100516.55
2018-05-23T04:21:21.435Z,100514.59
2018-05-23T04:23:49.734Z,100514.06
2018-05-23T04:26:18.067Z,100520.61
2018-05-23T04:28:46.401Z,100522.20
2018-05-23T04:31:14.694Z,100532.06
2018-05-23T04:33:42.976Z,100532.30
2018-05-23T04:36:11.404Z,100529.22
2018-05-23T04:38:40.382Z,100528.30
2018-05-23T04:41:08.693Z,100537.16
2018-05-23T04:43:37.751Z,100534.33
2018-05-23T04:46:06.052Z,100538.45
2018-05-23T04:48:35.107Z,100545.23
2018-05-23T04:51:03.410Z,100542.20
2018-05-23T04:53:31.765Z,100542.59
2018-05-23T04:56:00.076Z,100546.19
2018-05-23T04:58:28.402Z,100552.22
2018-05-23T05:00:56.739Z,100550.84
2018-05-23T05:03:25.805Z,100556.89
2018-05-23T05:05:54.374Z,100559.59
2018-05-23T05:08:22.717Z,100564.09
2018-05-23T05:10:51.099Z,100563.84
2018-05-23T05:13:19.431Z,100563.61
2018-05-23T05:15:47.717Z,100563.34
2018-05-23T05:18:16.003Z,100570.48
2018-05-23T05:20:44.297Z,100573.50
2018-05-23T05:23:13.376Z,100580.84
2018-05-23T05:25:41.666Z,100579.36
2018-05-23T05:28:10.739Z,100583.58
2018-05-23T05:30:39.028Z,100595.02
2018-05-23T05:33:07.336Z,100596.81
2018-05-23T05:35:35.662Z,100599.05
2018-05-23T05:38:03.977Z,100605.74
2018-05-23T05:40:33.047Z,100602.05
2018-05-23T05:43:01.346Z,100606.94
2018-05-23T05:45:30.405Z,100609.77
2018-05-23T05:47:59.194Z,100610.71
2018-05-23T05:50:27.474Z,100611.35
2018-05-23T05:52:55.776Z,100619.39
2018-05-23T05:55:24.071Z,100629.12
2018-05-23T05:57:53.132Z,100630.52
2018-05-23T06:00:21.469Z,100642.50
2018-05-23T06:02:49.754Z,100643.64
2018-05-23T06:05:18.126Z,100643.52
2018-05-23T06:07:47.151Z,100648.98
2018-05-23T06:10:15.447Z,100657.05
2018-05-23T06:12:43.797Z,100649.77
2018-05-23T06:15:12.151Z,100650.30
2018-05-23T06:17:40.443Z,100657.87
2018-05-23T06:20:08.806Z,100660.17
2018-05-23T06:22:37.155Z,100662.21
2018-05-23T06:25:06.197Z,100667.76
2018-05-23T06:27:34.577Z,100665.41
2018-05-23T06:30:02.957Z,100665.80
2018-05-23T06:32:31.331Z,100670.34
2018-05-23T06:34:59.680Z,100669.05
2018-05-23T06:37:28.014Z,100669.12
2018-05-23T06:39:56.371Z,100672.87
2018-05-23T06:42:25.416Z,100674.20
2018-05-23T06:44:54.633Z,100669.16
2018-05-23T06:47:22.965Z,100676.74
2018-05-23T06:49:51.241Z,100680.45
2018-05-23T06:52:19.568Z,100678.57
2018-05-23T06:54:47.889Z,100683.66
2018-05-23T06:57:16.216Z,100687.30
2018-05-23T06:59:45.260Z,100692.68
2018-05-23T07:02:13.684Z,100696.08
2018-05-23T07:04:43.026Z,100707.02
2018-05-23T07:07:11.343Z,100702.34
2018-05-23T07:09:39.664Z,100704.31
2018-05-23T07:12:07.984Z,100716.17
2018-05-23T07:14:36.336Z,100714.45
2018-05-23T07:17:05.004Z,100717.06
2018-05-23T07:19:33.421Z,100724.59
2018-05-23T07:22:01.758Z,100718.47
2018-05-23T07:24:30.366Z,100714.87
2018-05-23T07:26:58.682Z,100719.19
2018-05-23T07:29:27.218Z,100727.30
2018-05-23T07:31:55.617Z,100727.86
2018-05-23T07:34:23.905Z,100727.69
2018-05-23T07:36:52.220Z,100736.55
2018-05-23T07:39:21.287Z,100738.78
2018-05-23T07:41:49.589Z,100740.83
2018-05-23T07:44:18.640Z,100735.99
2018-05-23T07:46:46.951Z,100737.95
2018-05-23T07:49:15.351Z,100743.48
2018-05-23T07:51:44.467Z,100744.45
2018-05-23T07:54:12.796Z,100747.92
2018-05-23T07:56:41.182Z,100748.41
2018-05-23T07:59:09.798Z,100744.61
2018-05-23T08:01:38.840Z,100746.88
2018-05-23T08:04:07.155Z,100745.48
2018-05-23T08:06:36.252Z,100742.72
2018-05-23T08:09:06.111Z,100748.77
2018-05-23T08:11:34.460Z,100742.33
2018-05-23T08:14:03.568Z,100752.98
2018-05-23T08:16:31.856Z,100757.80
2018-05-23T08:19:00.177Z,100758.52
2018-05-23T08:21:28.512Z,100754.81
2018-05-23T08:23:56.846Z,100763.08
2018-05-23T08:26:25.923Z,100762.87
2018-05-23T08:28:54.188Z,100772.72
2018-05-23T08:31:23.369Z,100764.28
2018-05-23T08:33:51.680Z,100769.95
2018-05-23T08:36:20.036Z,100771.30
2018-05-23T08:38:49.114Z,100768.33
2018-05-23T08:41:17.398Z,100767.41
2018-05-23T08:43:45.721Z,100764.32
2018-05-23T08:46:14.318Z,100766.16
2018-05-23T08:48:43.441Z,100778.52
2018-05-23T08:51:11.904Z,100778.00
2018-05-23T08:53:40.999Z,100778.34
2018-05-23T08:56:09.319Z,100781.23
2018-05-23T08:58:37.675Z,100785.37
2018-05-23T09:01:06.010Z,100781.41
2018-05-23T09:03:34.288Z,100793.63
2018-05-23T09:06:02.609Z,100793.59
2018-05-23T09:08:30.930Z,100802.13
2018-05-23T09:10:59.274Z,100796.87
2018-05-23T09:13:27.583Z,100806.37
2018-05-23T09:15:55.907Z,100803.16
2018-05-23T09:18:24.175Z,100806.44
2018-05-23T09:20:52.556Z,100807.83
2018-05-23T09:23:20.872Z,100802.83
2018-05-23T09:25:49.241Z,100807.84
2018-05-23T09:28:17.934Z,100815.66
2018-05-23T09:30:46.234Z,100812.61
2018-05-23T09:33:14.569Z,100814.44
2018-05-23T09:35:42.892Z,100817.94
2018-05-23T09:38:11.125Z,100818.94
2018-05-23T09:40:39.484Z,100812.77
2018-05-23T09:43:08.594Z,100815.57
2018-05-23T09:45:36.889Z,100818.69
2018-05-23T09:48:05.342Z,100826.00
2018-05-23T09:50:34.437Z,100824.88
2018-05-23T09:53:03.459Z,100828.30
2018-05-23T09:55:31.775Z,100830.47
2018-05-23T09:58:00.866Z,100838.88
2018-05-23T10:00:29.156Z,100829.42
2018-05-23T10:02:58.324Z,100834.85
2018-05-23T10:05:26.617Z,100838.84
2018-05-23T10:07:54.936Z,100842.13
2018-05-23T10:10:23.977Z,100839.49
2018-05-23T10:12:52.291Z,100845.59
2018-05-23T10:15:21.620Z,100846.09
2018-05-23T10:17:49.958Z,100847.78
2018-05-23T10:20:18.273Z,100857.20
2018-05-23T10:22:46.585Z,100861.84
2018-05-23T10:25:14.948Z,100858.63
2018-05-23T10:27:43.373Z,100863.27
2018-05-23T10:30:11.711Z,100860.36
2018-05-23T10:32:40.018Z,100861.99
2018-05-23T10:35:08.317Z,100855.77
2018-05-23T10:37:36.610Z,100860.98
2018-05-23T10:40:05.747Z,100864.78
2018-05-23T10:42:34.059Z,100864.80
2018-05-23T10:45:02.365Z,100872.20
2018-05-23T10:47:31.450Z,100863.16
2018-05-23T10:50:00.520Z,100871.84
2018-05-23T10:52:28.835Z,100878.09
2018-05-23T10:54:57.918Z,100872.05
2018-05-23T10:57:27.686Z,100863.21
2018-05-23T10:59:56.057Z,100869.60
2018-05-23T11:02:25.028Z,100868.47
2018-05-23T11:04:53.352Z,100876.84
2018-05-23T11:07:21.682Z,100877.54
2018-05-23T11:09:49.998Z,100874.16
2018-05-23T11:12:18.317Z,100875.65
2018-05-23T11:14:47.537Z,100877.03
2018-05-23T11:17:15.884Z,100880.08
2018-05-23T11:19:44.215Z,100881.19
2018-05-23T11:22:12.512Z,100876.91
2018-05-23T11:24:40.838Z,100875.62
2018-05-23T11:27:09.897Z,100875.37
2018-05-23T11:29:38.330Z,100874.83
2018-05-23T11:32:06.644Z,100871.45
2018-05-23T11:34:34.971Z,100875.59
2018-05-23T11:37:03.303Z,100880.73
2018-05-23T11:39:31.628Z,100870.16
2018-05-23T11:42:00.100Z,100872.02
2018-05-23T11:44:28.678Z,100864.66
2018-05-23T11:46:57.765Z,100860.98
2018-05-23T11:49:27.072Z,100862.70
2018-05-23T11:51:56.248Z,100863.63
2018-05-23T11:54:24.553Z,100858.52
2018-05-23T11:56:53.613Z,100858.06
2018-05-23T11:59:21.899Z,100858.75
2018-05-23T12:01:50.218Z,100862.52
2018-05-23T12:04:19.256Z,100861.61
2018-05-23T12:06:47.600Z,100853.95
2018-05-23T12:09:15.907Z,100848.92
2018-05-23T12:11:44.240Z,100849.78
2018-05-23T12:14:12.543Z,100846.23
2018-05-23T12:16:40.837Z,100850.20
2018-05-23T12:19:09.215Z,100846.81
2018-05-23T12:21:37.516Z,100852.61
2018-05-23T12:24:06.162Z,100840.56
2018-05-23T12:26:34.457Z,100846.53
2018-05-23T12:29:02.787Z,100846.87
2018-05-23T12:31:32.110Z,100854.88
2018-05-23T12:34:00.438Z,100848.82
2018-05-23T12:36:28.726Z,100852.84
2018-05-23T12:38:57.033Z,100843.64
2018-05-23T12:41:25.440Z,100855.22
2018-05-23T12:43:53.829Z,100849.61
2018-05-23T12:46:22.133Z,100838.00
2018-05-23T12:48:50.452Z,100850.09
2018-05-23T12:51:18.776Z,100854.01
2018-05-23T12:53:47.141Z,100859.07
2018-05-23T12:56:15.533Z,100865.16
2018-05-23T12:58:43.861Z,100855.99
2018-05-23T13:01:12.923Z,100846.76
2018-05-23T13:03:41.251Z,100844.59
2018-05-23T13:06:09.577Z,100839.66
2018-05-23T13:08:37.891Z,100836.11
2018-05-23T13:11:06.183Z,100845.75
2018-05-23T13:13:34.538Z,100845.27
2018-05-23T13:16:03.625Z,100836.19
2018-05-23T13:18:32.685Z,100842.89
2018-05-23T13:21:01.070Z,100853.86
2018-05-23T13:23:29.396Z,100840.55
2018-05-23T13:25:58.583Z,100846.23
2018-05-23T13:28:26.798Z,100826.30
2018-05-23T13:30:55.081Z,100827.36
2018-05-23T13:33:24.146Z,100815.12
2018-05-23T13:35:52.461Z,100827.00
2018-05-23T13:38:20.729Z,100832.12
2018-05-23T13:40:49.844Z,100823.04
2018-05-23T13:43:18.113Z,100826.53
2018-05-23T13:45:46.414Z,100851.50
2018-05-23T13:48:14.788Z,100814.03
2018-05-23T13:50:43.101Z,100813.99
2018-05-23T13:53:12.179Z,100811.91
2018-05-23T13:55:41.227Z,100812.08
2018-05-23T13:58:09.540Z,100814.86
2018-05-23T14:00:38.322Z,100806.10
2018-05-23T14:03:06.632Z,100819.92
2018-05-23T14:05:35.759Z,100803.61
2018-05-23T14:08:04.073Z,100802.68
2018-05-23T14:10:33.884Z,100806.25
2018-05-23T14:13:02.209Z,100803.20
2018-05-23T14:15:30.538Z,100803.41
2018-05-23T14:17:58.861Z,100801.48
2018-05-23T14:20:27.905Z,100808.36
2018-05-23T14:22:56.243Z,100803.00
2018-05-23T14:25:24.582Z,100806.90
2018-05-23T14:27:52.925Z,100803.66
2018-05-23T14:30:21.311Z,100807.50
2018-05-23T14:32:49.594Z,100799.46
2018-05-23T14:35:17.946Z,100807.97
2018-05-23T14:37:46.227Z,100803.34
2018-05-23T14:40:14.698Z,100811.80
2018-05-23T14:42:43.398Z,100812.52
2018-05-23T14:45:11.726Z,100827.48
2018-05-23T14:47:40.032Z,100807.80
2018-05-23T14:50:08.371Z,100810.97
2018-05-23T14:52:36.679Z,100828.06
2018-05-23T14:55:05.801Z,100806.70
2018-05-23T14:57:34.113Z,100818.48
2018-05-23T15:00:02.455Z,100816.93
2018-05-23T15:02:30.842Z,100823.98
2018-05-23T15:04:59.080Z,100826.86
2018-05-23T15:07:28.266Z,100811.13
2018-05-23T15:09:57.365Z,100811.09
2018-05-23T15:12:27.277Z,100810.34
2018-05-23T15:14:56.333Z,100806.35
2018-05-23T15:17:24.629Z,100811.73
2018-05-23T15:19:53.069Z,100800.67
2018-05-23T15:22:21.358Z,100808.53
2018-05-23T15:24:49.693Z,100796.84
2018-05-23T15:27:18.773Z,100820.91
2018-05-23T15:29:47.366Z,100801.45
2018-05-23T15:32:16.420Z,100790.30
2018-05-23T15:34:44.892Z,100797.42
2018-05-23T15:37:14.058Z,100803.29
2018-05-23T15:39:43.126Z,100787.58
2018-05-23T15:42:11.455Z,100798.53
2018-05-23T15:44:39.730Z,100799.02
2018-05-23T15:47:08.060Z,100784.52
2018-05-23T15:49:36.483Z,100799.84
2018-05-23T15:52:04.820Z,100801.69
2018-05-23T15:54:33.117Z,100795.47
2018-05-23T15:57:02.339Z,100798.39
2018-05-23T15:59:30.672Z,100785.93
2018-05-23T16:01:58.991Z,100800.95
2018-05-23T16:04:27.311Z,100801.91
2018-05-23T16:06:55.658Z,100792.19
2018-05-23T16:09:24.097Z,100798.80
2018-05-23T16:11:52.349Z,100804.80
2018-05-23T16:14:20.714Z,100804.86
2018-05-23T16:16:49.584Z,100800.89
2018-05-23T16:19:17.875Z,100799.19
2018-05-23T16:21:46.169Z,100808.03
2018-05-23T16:24:14.479Z,100805.73
2018-05-23T16:26:43.543Z,100805.38
2018-05-23T16:29:11.840Z,100809.13
2018-05-23T16:31:40.183Z,100803.02
2018-05-23T16:34:08.498Z,100802.17
2018-05-23T16:36:36.760Z,100796.23
2018-05-23T16:39:05.853Z,100814.95
2018-05-23T16:41:34.167Z,100804.11
2018-05-23T16:44:03.258Z,100813.41
2018-05-23T16:46:32.440Z,100799.94
2018-05-23T16:49:05.018Z,100804.80
2018-05-23T16:51:33.350Z,100797.48
2018-05-23T16:54:01.689Z,100795.59
2018-05-23T16:56:30.825Z,100805.34
2018-05-23T16:58:59.141Z,100800.13
2018-05-23T17:01:27.469Z,100803.45
2018-05-23T17:03:55.805Z,100800.73
2018-05-23T17:06:24.186Z,100803.09
2018-05-23T17:08:52.441Z,100808.22
2018-05-23T17:11:20.888Z,100797.13
2018-05-23T17:13:49.188Z,100801.86
2018-05-23T17:16:17.514Z,100799.89
2018-05-23T17:18:46.678Z,100800.09
2018-05-23T17:21:14.945Z,100798.81
2018-05-23T17:23:43.247Z,100813.19
2018-05-23T17:26:11.596Z,100804.44
2018-05-23T17:28:39.896Z,100805.94
2018-05-23T17:31:08.213Z,100810.01
2018-05-23T17:33:36.524Z,100811.28
2018-05-23T17:36:05.577Z,100808.75
2018-05-23T17:38:34.701Z,100813.85
2018-05-23T17:41:02.979Z,100814.30
2018-05-23T17:43:31.302Z,100807.95
2018-05-23T17:45:59.610Z,100808.28
2018-05-23T17:48:28.722Z,100810.95
2018-05-23T17:50:57.266Z,100812.87
2018-05-23T17:53:25.545Z,100808.99
2018-05-23T17:55:54.660Z,100810.73
2018-05-23T17:58:23.843Z,100807.58
2018-05-23T18:00:52.907Z,100808.47
2018-05-23T18:03:21.517Z,100812.14
2018-05-23T18:05:49.902Z,100809.67
2018-05-23T18:08:18.131Z,100814.77
2018-05-23T18:10:46.430Z,100815.30
2018-05-23T18:13:14.748Z,100813.53
2018-05-23T18:15:43.779Z,100822.97
2018-05-23T18:18:12.092Z,100821.09
2018-05-23T18:20:40.421Z,100818.23
2018-05-23T18:23:08.738Z,100820.88
2018-05-23T18:25:37.060Z,100816.42
2018-05-23T18:28:05.368Z,100819.72
2018-05-23T18:30:33.709Z,100822.61
2018-05-23T18:33:03.225Z,100824.52
2018-05-23T18:35:31.552Z,100835.83
2018-05-23T18:37:59.870Z,100826.21
2018-05-23T18:40:28.928Z,100832.23
2018-05-23T18:42:57.259Z,100834.97
2018-05-23T18:45:25.677Z,100832.27
2018-05-23T18:47:53.975Z,100839.99
2018-05-23T18:50:22.288Z,100840.58
2018-05-23T18:52:50.566Z,100844.11
2018-05-23T18:55:19.665Z,100850.07
2018-05-23T18:57:48.134Z,100850.77
2018-05-23T19:00:17.228Z,100851.05
2018-05-23T19:02:46.295Z,100851.88
2018-05-23T19:05:14.709Z,100856.89
2018-05-23T19:07:43.034Z,100857.45
2018-05-23T19:10:11.382Z,100864.92
2018-05-23T19:12:39.761Z,100870.60
2018-05-23T19:15:08.132Z,100868.02
2018-05-23T19:17:36.460Z,100872.61
2018-05-23T19:20:05.146Z,100868.28
2018-05-23T19:22:33.403Z,100868.23
2018-05-23T19:25:01.709Z,100867.83
2018-05-23T19:27:30.009Z,100873.10
2018-05-23T19:29:59.116Z,100879.33
2018-05-23T19:32:28.184Z,100880.39
2018-05-23T19:34:56.456Z,100889.83
2018-05-23T19:37:24.777Z,100893.06
2018-05-23T19:39:53.349Z,100892.62
2018-05-23T19:42:21.554Z,100900.98
2018-05-23T19:44:49.863Z,100898.91
2018-05-23T19:47:18.196Z,100899.97
2018-05-23T19:49:46.505Z,100896.05
2018-05-23T19:52:14.828Z,100901.57
2018-05-23T19:54:43.903Z,100895.48
2018-05-23T19:57:12.221Z,100896.44
2018-05-23T19:59:41.255Z,100902.88
2018-05-23T20:02:10.080Z,100898.79
2018-05-23T20:04:39.053Z,100898.92
2018-05-23T20:07:08.013Z,100901.81
2018-05-23T20:09:36.343Z,100907.77
2018-05-23T20:12:05.446Z,100910.81
2018-05-23T20:14:34.625Z,100907.30
2018-05-23T20:17:02.881Z,100926.59
2018-05-23T20:19:31.229Z,100920.78
2018-05-23T20:21:59.522Z,100921.38
2018-05-23T20:24:27.845Z,100919.95
2018-05-23T20:27:03.919Z,100919.62
2018-05-23T20:29:33.076Z,100919.67
2018-05-23T20:32:01.475Z,100927.02
2018-05-23T20:34:29.810Z,100922.78
2018-05-23T20:36:58.146Z,100928.41
2018-05-23T20:39:26.456Z,100927.82
2018-05-23T20:41:54.771Z,100933.58
2018-05-23T20:44:23.066Z,100926.29
2018-05-23T20:46:51.346Z,100928.67
2018-05-23T20:49:20.389Z,100931.52
2018-05-23T20:51:48.687Z,100931.91
2018-05-23T20:54:16.973Z,100936.14
2018-05-23T20:56:45.311Z,100942.14
2018-05-23T20:59:13.607Z,100929.75
2018-05-23T21:01:41.922Z,100935.94
2018-05-23T21:04:10.201Z,100938.78
2018-05-23T21:06:38.490Z,100933.03
2018-05-23T21:09:07.586Z,100936.08
2018-05-23T21:11:36.687Z,100941.13
2018-05-23T21:14:04.974Z,100934.91
2018-05-23T21:16:34.067Z,100938.96
2018-05-23T21:19:03.110Z,100946.59
2018-05-23T21:21:31.421Z,100947.41
2018-05-23T21:23:59.736Z,100949.95
2018-05-23T21:26:28.044Z,100944.91
2018-05-23T21:28:56.361Z,100949.96
2018-05-23T21:31:25.439Z,100946.32
2018-05-23T21:33:53.756Z,100955.89
2018-05-23T21:36:22.048Z,100948.68
2018-05-23T21:38:50.346Z,100950.52
2018-05-23T21:41:18.761Z,100951.86
2018-05-23T21:43:47.102Z,100950.16
2018-05-23T21:46:15.446Z,100949.48
2018-05-23T21:48:43.805Z,100942.67
2018-05-23T21:51:12.995Z,100945.47
2018-05-23T21:53:41.373Z,100938.37
2018-05-23T21:56:09.714Z,100937.30
2018-05-23T21:58:38.045Z,100942.51
2018-05-23T22:01:07.187Z,100941.98
2018-05-23T22:03:35.504Z,100936.31
2018-05-23T22:06:03.852Z,100944.00
2018-05-23T22:08:32.181Z,100938.59
2018-05-23T22:11:01.279Z,100943.06
2018-05-23T22:13:29.588Z,100941.39
2018-05-23T22:15:57.931Z,100939.02
2018-05-23T22:18:27.026Z,100944.72
2018-05-23T22:20:55.348Z,100936.81
2018-05-23T22:23:24.395Z,100942.00
2018-05-23T22:25:53.509Z,100938.82
2018-05-23T22:28:21.914Z,100944.48
2018-05-23T22:30:50.331Z,100939.41
2018-05-23T22:33:18.880Z,100937.52
2018-05-23T22:35:47.288Z,100940.22
2018-05-23T22:38:15.672Z,100939.48
2018-05-23T22:40:43.978Z,100940.98
2018-05-23T22:43:12.283Z,100935.44
2018-05-23T22:45:40.605Z,100931.80
2018-05-23T22:48:08.919Z,100932.20
2018-05-23T22:50:37.307Z,100933.86
2018-05-23T22:53:05.626Z,100931.89
2018-05-23T22:55:34.048Z,100927.22
2018-05-23T22:58:05.582Z,100929.02
2018-05-23T23:00:33.905Z,100930.72
2018-05-23T23:03:02.287Z,100936.89
2018-05-23T23:05:30.666Z,100934.31
2018-05-23T23:07:58.999Z,100934.79
2018-05-23T23:10:27.820Z,100939.08
2018-05-23T23:12:56.127Z,100940.17
2018-05-23T23:15:24.420Z,100936.66
2018-05-23T23:17:52.727Z,100928.91
2018-05-23T23:20:21.805Z,100934.89
2018-05-23T23:22:50.157Z,100932.95
2018-05-23T23:27:53.013Z,100932.84
2018-05-23T23:30:21.286Z,100932.81
2018-05-23T23:32:50.360Z,100930.84
2018-05-23T23:35:18.680Z,100939.49
2018-05-23T23:37:46.984Z,100930.09
2018-05-23T23:40:15.277Z,100936.39
2018-05-23T23:42:43.628Z,100940.25
2018-05-23T23:45:11.984Z,100934.52
2018-05-23T23:47:41.102Z,100937.21
2018-05-23T23:50:09.345Z,100935.05
2018-05-23T23:52:37.693Z,100934.92
2018-05-23T23:55:07.500Z,100934.77
2018-05-23T23:57:35.854Z,100938.55
